Time;durP1;ratioP1;P1;durP2;ratioP2;P2;SDS_P1;SDS_P2;PMS_P1;PMS_P2;Temp;Humidity;BMP_temperature;BMP_pressure;BME280_temperature;BME280_humidity;BME280_pressure;Samples;Min_cycle;Max_cycle;Signal;HPM_P1;HPM_P2
2022/09/07 00:00:44;;;;;;;1.27;1.17;;;;;;;11.58;58.63;101375.84;455325;116;930207;-74
2022/09/07 00:01:47;;;;;;;1.23;1.12;;;;;;;11.57;58.67;101377.76;455357;116;922616;-75
2022/09/07 00:02:50;;;;;;;0.88;0.84;;;;;;;11.58;58.69;101378.58;455395;116;922593;-74
2022/09/07 00:03:55;;;;;;;1.46;1.24;;;;;;;11.57;58.79;101376.91;455372;116;922545;-75
2022/09/07 00:04:58;;;;;;;1.59;1.18;;;;;;;11.57;58.69;101377.76;455232;116;922593;-73
2022/09/07 00:06:04;;;;;;;1.55;1.15;;;;;;;11.55;58.67;101377.11;455346;116;930068;-74
2022/09/07 00:07:08;;;;;;;1.84;1.23;;;;;;;11.54;58.61;101380.03;455250;116;922579;-73
2022/09/07 00:08:11;;;;;;;2.12;1.16;;;;;;;11.52;58.74;101372.03;455446;116;923140;-73
2022/09/07 00:09:15;;;;;;;0.87;0.86;;;;;;;11.51;58.64;101372.25;455318;116;922489;-74
2022/09/07 00:10:19;;;;;;;1.81;1.29;;;;;;;11.49;58.70;101377.91;455333;116;922532;-74
2022/09/07 00:11:22;;;;;;;1.29;1.19;;;;;;;11.49;58.77;101371.60;455244;116;930705;-73
2022/09/07 00:12:25;;;;;;;2.27;1.16;;;;;;;11.48;58.73;101372.64;455338;116;930203;-73
2022/09/07 00:13:31;;;;;;;1.46;1.36;;;;;;;11.47;58.79;101377.25;455390;116;922559;-73
2022/09/07 00:14:34;;;;;;;1.06;1.02;;;;;;;11.49;58.84;101377.06;455199;116;923747;-74
2022/09/07 00:15:39;;;;;;;1.28;1.14;;;;;;;11.48;58.82;101373.48;451523;116;922559;-73
2022/09/07 00:16:42;;;;;;;1.44;1.22;;;;;;;11.48;58.86;101375.38;439670;120;922587;-73
2022/09/07 00:17:45;;;;;;;1.41;1.27;;;;;;;11.48;58.91;101372.64;439828;120;930260;-74
2022/09/07 00:18:49;;;;;;;1.74;1.17;;;;;;;11.47;58.97;101373.68;439709;120;922591;-73
2022/09/07 00:19:54;;;;;;;1.72;1.35;;;;;;;11.50;59.05;101376.02;439761;120;930287;-73
2022/09/07 00:21:02;;;;;;;1.61;1.00;;;;;;;11.49;59.20;101383.38;439702;120;922714;-74
2022/09/07 00:22:05;;;;;;;3.34;1.05;;;;;;;11.51;59.12;101374.98;439672;120;922949;-73
2022/09/07 00:23:08;;;;;;;4.19;1.21;;;;;;;11.52;59.12;101376.68;439794;120;923036;-73
2022/09/07 00:24:12;;;;;;;1.32;1.07;;;;;;;11.51;59.18;101375.83;439875;120;923119;-74
2022/09/07 00:25:15;;;;;;;1.78;0.96;;;;;;;11.52;59.06;101374.76;439779;120;922511;-73
2022/09/07 00:26:28;;;;;;;1.29;1.12;;;;;;;11.52;59.12;101380.22;439713;120;930268;-73
2022/09/07 00:27:31;;;;;;;1.18;1.07;;;;;;;11.53;58.97;101378.34;439657;120;923043;-73
2022/09/07 00:28:35;;;;;;;1.18;1.09;;;;;;;11.52;58.90;101368.48;444318;118;922532;-73
2022/09/07 00:29:39;;;;;;;1.16;1.06;;;;;;;11.51;58.96;101370.37;449947;117;922592;-73
2022/09/07 00:30:42;;;;;;;1.21;1.11;;;;;;;11.50;58.91;101368.68;452472;117;922846;-73
2022/09/07 00:31:45;;;;;;;1.63;1.40;;;;;;;11.50;58.85;101374.14;440116;120;922936;-74
2022/09/07 00:32:48;;;;;;;4.17;1.31;;;;;;;11.48;58.69;101368.02;438973;121;922656;-73
2022/09/07 00:33:53;;;;;;;1.37;1.27;;;;;;;11.46;58.41;101372.02;445437;117;922607;-73
2022/09/07 00:34:56;;;;;;;1.25;1.15;;;;;;;11.41;58.36;101380.78;450636;117;922625;-74
2022/09/07 00:35:59;;;;;;;1.31;1.19;;;;;;;11.37;58.37;101373.20;450790;117;930238;-73
2022/09/07 00:37:02;;;;;;;1.26;1.16;;;;;;;11.33;58.43;101380.97;450848;117;922738;-73
2022/09/07 00:38:06;;;;;;;1.37;1.19;;;;;;;11.33;58.46;101380.12;450804;117;922898;-74
2022/09/07 00:39:09;;;;;;;1.49;1.24;;;;;;;11.30;58.60;101374.00;450796;117;922527;-74
2022/09/07 00:40:12;;;;;;;1.19;0.97;;;;;;;11.32;58.63;101376.55;464892;114;922487;-74
2022/09/07 00:41:18;;;;;;;1.26;1.13;;;;;;;11.32;58.68;101382.00;464810;114;930160;-73
2022/09/07 00:42:22;;;;;;;1.23;1.13;;;;;;;11.32;58.61;101378.42;464791;114;922536;-73
2022/09/07 00:43:31;;;;;;;1.13;1.06;;;;;;;11.30;58.62;101376.73;464924;114;923005;-74
2022/09/07 00:44:47;;;;;;;1.41;0.99;;;;;;;11.31;58.72;101385.77;464739;114;930730;-74
2022/09/07 00:45:50;;;;;;;3.02;1.17;;;;;;;11.30;58.69;101384.11;462221;114;922472;-73
2022/09/07 00:46:53;;;;;;;1.20;1.05;;;;;;;11.29;58.71;101383.27;465030;114;922513;-74
2022/09/07 00:48:09;;;;;;;1.42;1.30;;;;;;;11.28;58.79;101380.72;464965;114;923047;-74
2022/09/07 00:49:16;;;;;;;1.42;1.22;;;;;;;11.28;58.76;101380.72;464749;114;922542;-74
2022/09/07 00:50:23;;;;;;;1.30;1.21;;;;;;;11.28;58.79;101377.99;464816;114;922634;-74
2022/09/07 00:51:30;;;;;;;1.02;0.90;;;;;;;11.26;58.80;101380.91;464754;114;922939;-74
2022/09/07 00:52:35;;;;;;;2.30;1.33;;;;;;;11.26;58.89;101380.07;464724;114;922627;-74
2022/09/07 00:53:45;;;;;;;1.59;1.32;;;;;;;11.27;58.89;101381.77;464770;114;922596;-74
2022/09/07 00:55:16;;;;;;;1.70;1.46;;;;;;;11.38;58.85;101378.47;496971;105;946772;-74
2022/09/07 00:56:22;;;;;;;3.98;1.16;;;;;;;11.24;58.77;101383.02;484146;107;922447;-73
2022/09/07 00:57:27;;;;;;;1.42;1.31;;;;;;;11.21;58.68;101377.95;490648;108;930228;-74
2022/09/07 00:58:30;;;;;;;1.33;1.23;;;;;;;11.19;58.63;101381.93;488326;108;922818;-74
2022/09/07 00:59:37;;;;;;;1.36;1.26;;;;;;;11.17;58.67;101376.66;473715;110;922467;-74
2022/09/07 01:00:43;;;;;;;1.11;1.06;;;;;;;11.15;58.67;101376.01;472695;110;930514;-74
2022/09/07 01:01:47;;;;;;;2.44;1.12;;;;;;;11.14;58.59;101379.77;473071;112;922541;-74
2022/09/07 01:02:54;;;;;;;1.86;1.47;;;;;;;11.13;58.55;101375.38;473185;110;923098;-74
2022/09/07 01:03:58;;;;;;;1.41;1.28;;;;;;;11.11;58.55;101380.19;473382;110;930262;-73
2022/09/07 01:05:05;;;;;;;1.73;1.32;;;;;;;11.10;58.57;101374.92;473223;111;923094;-73
2022/09/07 01:06:20;;;;;;;1.34;1.18;;;;;;;11.10;58.55;101383.95;473299;110;922476;-73
2022/09/07 01:07:24;;;;;;;1.54;1.14;;;;;;;11.09;58.52;101375.95;473079;112;922962;-73
2022/09/07 01:08:28;;;;;;;2.35;1.32;;;;;;;11.07;58.50;101384.36;473284;110;922463;-72
2022/09/07 01:09:32;;;;;;;1.32;1.22;;;;;;;11.05;58.49;101378.25;473227;112;922978;-72
2022/09/07 01:10:36;;;;;;;1.31;1.22;;;;;;;11.04;58.49;101383.89;473252;111;922441;-73
2022/09/07 01:11:39;;;;;;;1.20;1.10;;;;;;;11.01;58.46;101379.70;473251;112;923155;-73
2022/09/07 01:12:43;;;;;;;1.31;1.21;;;;;;;11.00;58.48;101371.70;473242;110;922631;-73
2022/09/07 01:13:48;;;;;;;1.37;1.22;;;;;;;10.98;58.44;101371.89;473286;110;922510;-73
2022/09/07 01:14:53;;;;;;;1.31;1.21;;;;;;;10.97;58.51;101369.38;473091;110;922486;-73
2022/09/07 01:16:25;;;;;;;1.52;1.34;;;;;;;10.95;58.54;101369.57;480350;110;922479;-74
2022/09/07 01:17:50;;;;;;;1.38;1.26;;;;;;;10.94;58.51;101367.88;481397;109;922965;-73
2022/09/07 01:19:03;;;;;;;1.32;1.22;;;;;;;10.92;58.48;101377.28;481748;110;922617;-74
2022/09/07 01:20:29;;;;;;;1.28;1.18;;;;;;;10.90;58.50;101371.20;464179;114;922741;-72
2022/09/07 01:21:52;;;;;;;1.49;1.39;;;;;;;10.86;58.57;101370.77;480627;110;922507;-74
2022/09/07 01:23:17;;;;;;;1.39;1.22;;;;;;;10.82;58.61;101373.03;481754;110;922500;-74
2022/09/07 01:24:44;;;;;;;2.90;1.26;;;;;;;10.76;58.57;101375.69;480352;109;922391;-72
2022/09/07 01:26:15;;;;;;;1.41;1.27;;;;;;;10.70;58.57;101369.14;472974;112;922558;-75
2022/09/07 01:27:46;;;;;;;1.69;1.47;;;;;;;10.64;58.69;101371.83;472399;109;922935;-72
2022/09/07 01:28:51;;;;;;;;;;;;;;;10.57;58.68;101371.77;472089;111;929766;-73
2022/09/07 01:30:09;;;;;;;1.78;1.41;;;;;;;10.51;58.92;101372.55;470969;110;922385;-73
2022/09/07 01:31:33;;;;;;;1.47;1.37;;;;;;;10.47;59.01;101367.68;480297;109;930487;-73
2022/09/07 01:33:04;;;;;;;2.04;1.34;;;;;;;10.43;59.05;101370.78;477214;109;922988;-73
2022/09/07 01:34:11;;;;;;;;;;;;;;;10.41;59.10;101375.60;481664;111;922368;-73
2022/09/07 01:35:21;;;;;;;2.18;1.18;;;;;;;10.40;59.21;101376.63;477806;111;922572;-74
2022/09/07 01:36:28;;;;;;;1.43;1.22;;;;;;;10.38;59.31;101372.41;458101;115;923784;-74
2022/09/07 01:37:44;;;;;;;1.38;1.28;;;;;;;10.32;59.23;101375.89;469269;109;922977;-74
2022/09/07 01:38:51;;;;;;;1.36;1.26;;;;;;;10.29;59.13;101379.87;481250;110;923013;-74
2022/09/07 01:40:07;;;;;;;1.29;1.21;;;;;;;10.25;59.25;101373.13;477912;109;922584;-73
2022/09/07 01:41:35;;;;;;;1.82;1.39;;;;;;;10.22;59.16;101376.22;475591;110;923011;-73
2022/09/07 01:42:51;;;;;;;1.54;1.17;;;;;;;10.19;59.16;101378.50;481688;110;922472;-72
2022/09/07 01:44:11;;;;;;;1.66;1.56;;;;;;;10.28;59.28;101371.88;472940;110;946881;-74
2022/09/07 01:45:18;;;;;;;1.38;1.28;;;;;;;10.14;59.33;101376.33;443686;116;923255;-74
2022/09/07 01:46:31;;;;;;;1.59;1.38;;;;;;;10.13;59.30;101380.09;457367;116;922706;-73
2022/09/07 01:47:38;;;;;;;1.32;1.25;;;;;;;10.11;59.39;101381.30;457319;116;922838;-74
2022/09/07 01:48:43;;;;;;;1.74;1.64;;;;;;;10.09;59.31;101386.12;457236;116;922537;-74
2022/09/07 01:49:53;;;;;;;1.73;1.59;;;;;;;10.06;59.33;101376.43;457299;116;922507;-73
2022/09/07 01:51:00;;;;;;;2.43;1.51;;;;;;;10.03;59.35;101385.00;457249;115;922538;-74
2022/09/07 01:52:06;;;;;;;2.32;1.52;;;;;;;10.01;59.33;101384.34;457286;116;923148;-74
2022/09/07 01:53:19;;;;;;;1.78;1.68;;;;;;;9.99;59.41;101380.95;457236;115;922869;-74
2022/09/07 01:54:34;;;;;;;1.76;1.66;;;;;;;9.98;59.49;101379.25;438615;119;922777;-73
2022/09/07 01:55:44;;;;;;;1.67;1.57;;;;;;;9.99;59.58;101384.52;454857;115;923044;-73
2022/09/07 01:56:50;;;;;;;1.97;1.69;;;;;;;10.01;59.58;101387.06;457307;116;922524;-73
2022/09/07 01:58:03;;;;;;;1.71;1.61;;;;;;;10.00;59.50;101385.37;457366;116;923053;-73
2022/09/07 01:59:10;;;;;;;1.83;1.73;;;;;;;9.99;59.49;101384.52;460699;115;922457;-73
2022/09/07 02:00:16;;;;;;;1.33;1.22;;;;;;;9.97;59.50;101388.48;461230;115;922977;-73
2022/09/07 02:01:40;;;;;;;3.12;1.45;;;;;;;9.94;59.52;101384.25;461623;115;922602;-73
2022/09/07 02:02:59;;;;;;;2.20;1.54;;;;;;;9.91;59.53;101386.52;461588;115;922870;-73
2022/09/07 02:04:06;;;;;;;1.92;1.76;;;;;;;9.90;59.73;101387.55;461577;114;923078;-73
2022/09/07 02:05:15;;;;;;;1.69;1.59;;;;;;;9.92;59.88;101380.05;461659;113;922502;-73
2022/09/07 02:06:21;;;;;;;;;;;;;;;9.92;59.89;101383.59;465228;114;922214;-73
2022/09/07 02:07:28;;;;;;;2.56;1.38;;;;;;;9.93;59.82;101384.44;461608;115;922470;-73
2022/09/07 02:08:34;;;;;;;1.74;1.64;;;;;;;9.90;59.86;101391.12;461491;115;930265;-73
2022/09/07 02:09:50;;;;;;;1.75;1.42;;;;;;;9.89;59.97;101385.86;461590;115;922588;-73
2022/09/07 02:10:59;;;;;;;2.96;1.78;;;;;;;9.90;60.03;101384.83;461620;114;922999;-73
2022/09/07 02:12:05;;;;;;;1.79;1.58;;;;;;;9.91;60.04;101384.65;461572;115;923046;-73
2022/09/07 02:13:15;;;;;;;2.04;1.76;;;;;;;9.93;59.86;101384.44;461667;113;922576;-73
2022/09/07 02:14:37;;;;;;;4.02;1.91;;;;;;;9.92;59.86;101388.22;461470;113;922489;-73
2022/09/07 02:15:55;;;;;;;2.28;1.79;;;;;;;9.94;59.84;101388.85;454679;115;922588;-73
2022/09/07 02:17:08;;;;;;;2.47;1.86;;;;;;;9.91;59.79;101379.20;448902;118;922633;-73
2022/09/07 02:18:15;;;;;;;3.90;1.92;;;;;;;9.91;59.83;101387.38;448936;118;923129;-73
2022/09/07 02:19:21;;;;;;;5.08;2.23;;;;;;;9.91;59.86;101381.92;448864;118;922610;-72
2022/09/07 02:20:28;;;;;;;3.09;2.04;;;;;;;9.93;59.90;101384.44;448919;118;922988;-73
2022/09/07 02:21:35;;;;;;;9.18;2.02;;;;;;;9.94;59.92;101384.25;449384;118;923240;-73
2022/09/07 02:22:41;;;;;;;3.16;1.96;;;;;;;9.95;59.84;101390.55;449393;118;922594;-73
2022/09/07 02:23:54;;;;;;;4.72;1.99;;;;;;;9.95;59.86;101385.95;448564;116;922755;-73
2022/09/07 02:25:00;;;;;;;5.71;2.12;;;;;;;9.97;59.81;101386.61;448853;117;923151;-73
2022/09/07 02:26:07;;;;;;;3.38;1.92;;;;;;;9.98;59.77;101384.70;449372;118;922474;-73
2022/09/07 02:27:17;;;;;;;3.43;1.89;;;;;;;9.97;59.81;101386.61;448874;117;922950;-73
2022/09/07 02:28:23;;;;;;;3.22;2.15;;;;;;;9.97;59.90;101388.48;448664;117;922798;-73
2022/09/07 02:29:27;;;;;;;4.14;2.28;;;;;;;9.99;59.90;101387.25;449351;116;923040;-73
2022/09/07 02:30:32;;;;;;;3.18;1.98;;;;;;;10.02;59.93;101392.33;457228;115;923096;-73
2022/09/07 02:31:35;;;;;;;3.25;1.98;;;;;;;10.05;59.93;101381.03;457516;115;922592;-73
2022/09/07 02:32:38;;;;;;;3.99;2.11;;;;;;;10.07;59.82;101393.63;457465;116;922528;-73
2022/09/07 02:33:41;;;;;;;4.26;1.95;;;;;;;10.08;59.80;101393.44;458622;113;922980;-73
2022/09/07 02:34:45;;;;;;;3.31;2.14;;;;;;;10.09;59.73;101392.38;466618;113;922408;-73
2022/09/07 02:35:48;;;;;;;5.46;1.87;;;;;;;10.10;59.69;101394.08;466618;113;923024;-73
2022/09/07 02:36:53;;;;;;;3.22;2.00;;;;;;;10.10;59.69;101394.08;466527;113;922623;-73
2022/09/07 02:37:59;;;;;;;4.56;1.91;;;;;;;10.10;59.51;101396.80;466315;113;930304;-73
2022/09/07 02:39:02;;;;;;;3.90;1.94;;;;;;;10.09;59.57;101394.29;466274;113;930628;-73
2022/09/07 02:40:07;;;;;;;2.49;2.04;;;;;;;10.08;59.50;101398.89;466482;113;922966;-73
2022/09/07 02:41:32;;;;;;;2.38;1.97;;;;;;;10.08;59.50;101398.89;466356;113;930318;-73
2022/09/07 02:42:37;;;;;;;2.27;2.07;;;;;;;10.07;59.41;101399.92;466398;113;922718;-73
2022/09/07 02:43:40;;;;;;;2.29;2.03;;;;;;;10.06;59.32;101403.67;465648;113;922641;-73
2022/09/07 02:44:45;;;;;;;2.61;1.70;;;;;;;10.03;59.36;101404.89;463776;114;930315;-73
2022/09/07 02:46:11;;;;;;;2.65;1.98;;;;;;;10.03;59.46;101393.98;463617;114;922966;-73
2022/09/07 02:47:27;;;;;;;2.84;2.04;;;;;;;10.04;59.46;101392.96;463649;114;922924;-72
2022/09/07 02:48:40;;;;;;;2.51;1.78;;;;;;;10.04;59.37;101401.13;463376;114;923018;-73
2022/09/07 02:50:05;;;;;;;2.31;1.77;;;;;;;10.03;59.28;101402.16;463583;114;922511;-73
2022/09/07 02:51:11;;;;;;;2.48;2.26;;;;;;;10.01;59.30;101395.23;463570;114;923310;-73
2022/09/07 02:52:38;;;;;;;2.13;1.91;;;;;;;9.98;59.20;101399.17;460325;114;922623;-73
2022/09/07 02:54:13;;;;;;;1.81;1.66;;;;;;;9.97;59.25;101402.11;463594;114;922550;-73
2022/09/07 02:55:25;;;;;;;2.07;1.69;;;;;;;9.96;59.37;101403.14;463509;114;922954;-73
2022/09/07 02:56:35;;;;;;;1.95;1.80;;;;;;;9.94;59.30;101406.05;463515;114;922839;-74
2022/09/07 02:57:47;;;;;;;3.19;2.16;;;;;;;9.95;59.34;101404.17;463534;114;922498;-73
2022/09/07 02:59:12;;;;;;;2.68;1.97;;;;;;;9.94;59.41;101406.05;457689;114;922696;-74
2022/09/07 03:00:24;;;;;;;1.91;1.70;;;;;;;9.95;59.44;101406.89;455090;116;923089;-73
2022/09/07 03:01:30;;;;;;;2.08;1.92;;;;;;;9.94;59.31;101407.92;455143;116;922652;-73
2022/09/07 03:02:55;;;;;;;1.87;1.72;;;;;;;9.93;59.41;101407.08;455660;116;923074;-73
2022/09/07 03:04:29;;;;;;;1.93;1.83;;;;;;;9.92;59.27;101412.73;455074;114;923116;-73
2022/09/07 03:05:42;;;;;;;3.24;2.27;;;;;;;9.90;59.25;101406.63;454775;116;922926;-73
2022/09/07 03:06:56;;;;;;;3.08;2.83;;;;;;;9.98;59.34;101411.95;477100;110;946834;-73
2022/09/07 03:08:11;;;;;;;2.63;2.53;;;;;;;9.86;59.50;101400.72;465154;113;922836;-73
2022/09/07 03:09:18;;;;;;;3.58;2.49;;;;;;;9.88;59.45;101411.41;469493;112;922924;-73
2022/09/07 03:10:23;;;;;;;3.40;3.11;;;;;;;9.89;59.51;101408.50;470624;112;923274;-73
2022/09/07 03:11:28;;;;;;;3.20;2.96;;;;;;;9.90;59.48;101407.47;471310;112;922969;-73
2022/09/07 03:12:46;;;;;;;3.12;2.76;;;;;;;9.91;59.44;101403.72;471229;112;922494;-73
2022/09/07 03:13:50;;;;;;;6.42;2.49;;;;;;;9.93;59.43;101411.67;471132;112;922754;-73
2022/09/07 03:14:53;;;;;;;3.10;2.64;;;;;;;9.93;59.33;101407.08;471345;112;922979;-73
2022/09/07 03:15:56;;;;;;;3.68;3.02;;;;;;;9.93;59.31;101408.95;471440;112;922861;-73
2022/09/07 03:17:01;;;;;;;3.40;2.71;;;;;;;9.94;59.36;101407.92;469331;112;922497;-73
2022/09/07 03:18:04;;;;;;;2.44;2.24;;;;;;;9.95;59.36;101421.36;463110;114;923462;-73
2022/09/07 03:19:07;;;;;;;2.88;2.54;;;;;;;9.95;59.30;101410.47;463154;113;922547;-73
2022/09/07 03:20:11;;;;;;;5.04;2.86;;;;;;;9.96;59.16;101419.48;463137;114;922556;-73
2022/09/07 03:21:14;;;;;;;2.47;2.27;;;;;;;9.96;59.16;101428.51;463108;114;922898;-73
2022/09/07 03:22:17;;;;;;;2.74;2.51;;;;;;;9.96;59.12;101420.33;463114;114;930375;-73
2022/09/07 03:23:21;;;;;;;2.56;2.34;;;;;;;9.96;59.04;101423.06;463182;114;923024;-73
2022/09/07 03:24:24;;;;;;;2.83;2.06;;;;;;;9.94;58.92;101426.99;463208;113;922659;-73
2022/09/07 03:25:27;;;;;;;2.46;2.26;;;;;;;9.92;58.91;101424.45;463226;114;922486;-73
2022/09/07 03:26:30;;;;;;;3.14;2.22;;;;;;;9.89;58.91;101424.84;463137;114;922583;-73
2022/09/07 03:27:34;;;;;;;2.53;2.31;;;;;;;9.88;59.00;101425.88;463246;114;923059;-73
2022/09/07 03:28:37;;;;;;;2.56;1.89;;;;;;;9.87;59.00;101428.78;463102;113;923009;-73
2022/09/07 03:29:40;;;;;;;2.14;1.94;;;;;;;9.86;59.11;101429.84;464763;112;930357;-73
2022/09/07 03:30:49;;;;;;;3.35;1.75;;;;;;;9.86;58.97;101435.28;470912;112;923014;-73
2022/09/07 03:31:50;;;;;;;2.33;2.11;;;;;;;9.82;58.89;101436.67;469356;112;922446;-73
2022/09/07 03:32:53;;;;;;;1.86;1.76;;;;;;;9.77;58.92;101429.08;470064;113;922949;-73
2022/09/07 03:33:56;;;;;;;1.81;1.71;;;;;;;9.72;58.89;101438.84;467565;112;922955;-73
2022/09/07 03:35:00;;;;;;;4.21;1.73;;;;;;;9.67;59.09;101427.67;463182;114;922994;-73
2022/09/07 03:36:05;;;;;;;3.92;1.85;;;;;;;9.63;59.14;101428.06;463079;114;922794;-73
2022/09/07 03:37:08;;;;;;;1.91;1.73;;;;;;;9.60;59.34;101431.14;463046;114;930375;-73
2022/09/07 03:38:11;;;;;;;2.10;1.95;;;;;;;9.60;59.43;101438.47;463097;114;922457;-74
2022/09/07 03:39:15;;;;;;;1.86;1.76;;;;;;;9.62;59.57;101437.26;463209;114;923061;-72
2022/09/07 03:40:19;;;;;;;2.25;1.83;;;;;;;9.62;59.66;101434.54;463013;114;922680;-72
2022/09/07 03:41:23;;;;;;;1.76;1.66;;;;;;;9.67;59.77;101438.56;463187;114;922544;-72
2022/09/07 03:42:26;;;;;;;2.24;2.04;;;;;;;9.70;59.81;101446.38;463210;114;922901;-72
2022/09/07 03:43:30;;;;;;;2.45;2.14;;;;;;;9.73;59.82;101446.84;463210;114;923074;-71
2022/09/07 03:44:33;;;;;;;1.63;1.52;;;;;;;9.75;59.80;101446.66;463115;114;922944;-72
2022/09/07 03:45:36;;;;;;;3.27;1.86;;;;;;;9.75;59.76;101436.61;463238;114;923400;-72
2022/09/07 03:46:39;;;;;;;1.72;1.62;;;;;;;9.77;59.75;101448.14;463123;114;922563;-72
2022/09/07 03:47:43;;;;;;;3.15;1.91;;;;;;;9.78;59.81;101441.66;463235;114;923118;-73
2022/09/07 03:48:47;;;;;;;1.98;1.84;;;;;;;9.81;59.99;101448.62;463194;114;922955;-73
2022/09/07 03:49:52;;;;;;;1.90;1.80;;;;;;;9.84;59.94;101445.52;463020;114;922589;-72
2022/09/07 03:51:04;;;;;;;2.07;1.94;;;;;;;9.87;60.02;101450.56;463138;114;923257;-73
2022/09/07 03:52:08;;;;;;;2.20;2.01;;;;;;;9.90;59.98;101452.93;462984;114;922498;-72
2022/09/07 03:53:11;;;;;;;1.87;1.77;;;;;;;9.92;59.89;101456.33;463096;114;922998;-73
2022/09/07 03:54:14;;;;;;;2.18;2.08;;;;;;;9.93;59.89;101449.81;463189;114;922544;-72
2022/09/07 03:55:17;;;;;;;2.39;1.97;;;;;;;9.95;60.00;101455.93;463224;114;923021;-73
2022/09/07 03:56:22;;;;;;;2.42;2.11;;;;;;;9.95;59.82;101454.05;463144;114;922648;-73
2022/09/07 03:57:25;;;;;;;2.21;2.01;;;;;;;9.95;59.81;101455.93;463068;114;923053;-72
2022/09/07 03:58:29;;;;;;;2.49;2.08;;;;;;;9.93;59.66;101458.83;465151;112;930346;-73
2022/09/07 03:59:33;;;;;;;2.08;1.95;;;;;;;9.91;59.66;101451.91;471327;112;923078;-72
2022/09/07 04:00:40;;;;;;;2.78;2.09;;;;;;;9.88;59.69;101454.98;471423;112;922535;-72
2022/09/07 04:01:43;;;;;;;1.90;1.78;;;;;;;9.86;59.79;101451.63;471227;112;930393;-72
2022/09/07 04:02:46;;;;;;;3.30;1.98;;;;;;;9.86;59.81;101455.20;471448;112;922782;-72
2022/09/07 04:03:50;;;;;;;2.33;2.21;;;;;;;9.86;59.95;101454.35;471545;112;922619;-72
2022/09/07 04:04:54;;;;;;;2.43;2.23;;;;;;;9.89;60.09;101456.69;471484;112;922457;-72
2022/09/07 04:06:01;;;;;;;2.42;2.16;;;;;;;9.92;60.04;101450.87;471546;112;922561;-72
2022/09/07 04:07:05;;;;;;;2.47;1.94;;;;;;;9.95;60.04;101461.38;471252;112;922816;-72
2022/09/07 04:08:08;;;;;;;2.22;2.12;;;;;;;9.98;60.01;101452.81;471308;112;922514;-72
2022/09/07 04:09:13;;;;;;;2.17;1.62;;;;;;;10.01;60.00;101455.17;471483;112;923009;-72
2022/09/07 04:10:16;;;;;;;2.04;1.83;;;;;;;10.03;60.09;101455.84;471313;112;922862;-73
2022/09/07 04:11:19;;;;;;;2.48;2.17;;;;;;;10.06;60.02;101455.45;471444;112;922552;-73
2022/09/07 04:12:24;;;;;;;2.58;2.34;;;;;;;10.07;59.89;101459.87;471452;112;922570;-73
2022/09/07 04:13:29;;;;;;;2.08;1.98;;;;;;;10.08;59.90;101458.84;471177;112;922570;-73
2022/09/07 04:14:32;;;;;;;3.70;2.14;;;;;;;10.11;59.93;101458.44;471203;112;922636;-73
2022/09/07 04:15:36;;;;;;;2.28;2.08;;;;;;;10.15;59.93;101465.20;467505;112;930552;-73
2022/09/07 04:16:39;;;;;;;2.51;2.18;;;;;;;10.18;59.94;101467.59;463016;114;923001;-73
2022/09/07 04:17:42;;;;;;;2.22;2.04;;;;;;;10.20;59.97;101462.77;463028;114;922580;-73
2022/09/07 04:18:46;;;;;;;2.92;2.34;;;;;;;10.23;59.88;101467.86;463060;114;922927;-73
2022/09/07 04:19:49;;;;;;;2.45;2.17;;;;;;;10.23;59.80;101459.69;463081;114;922629;-73
2022/09/07 04:20:52;;;;;;;2.46;2.23;;;;;;;10.25;59.83;101460.34;463112;114;922469;-73
2022/09/07 04:21:55;;;;;;;2.29;2.18;;;;;;;10.27;59.80;101460.98;463053;114;923029;-73
2022/09/07 04:22:58;;;;;;;2.39;2.18;;;;;;;10.29;59.74;101464.37;463114;114;922568;-73
2022/09/07 04:24:02;;;;;;;2.26;2.06;;;;;;;10.29;59.73;101456.19;463081;114;922795;-73
2022/09/07 04:25:05;;;;;;;2.38;2.07;;;;;;;10.32;59.79;101457.67;463013;114;923002;-73
2022/09/07 04:26:14;;;;;;;2.70;2.44;;;;;;;10.34;59.88;101458.34;462922;114;930447;-73
2022/09/07 04:27:17;;;;;;;2.62;2.08;;;;;;;10.35;59.84;101460.87;462813;114;930343;-73
2022/09/07 04:28:20;;;;;;;2.27;2.08;;;;;;;10.39;59.81;101459.45;463046;114;923249;-73
2022/09/07 04:29:24;;;;;;;3.96;2.08;;;;;;;10.42;59.83;101461.78;463055;114;922755;-73
2022/09/07 04:30:28;;;;;;;3.05;2.32;;;;;;;10.45;59.90;101466.02;461675;114;923055;-73
2022/09/07 04:31:33;;;;;;;2.79;1.99;;;;;;;10.49;59.84;101455.56;463007;114;922635;-73
2022/09/07 04:32:36;;;;;;;3.09;2.26;;;;;;;10.51;59.75;101470.70;462932;114;923114;-72
2022/09/07 04:33:39;;;;;;;2.34;2.11;;;;;;;10.54;59.74;101467.58;463066;112;922509;-73
2022/09/07 04:34:42;;;;;;;2.22;1.94;;;;;;;10.56;59.71;101462.79;463085;114;922942;-73
2022/09/07 04:35:45;;;;;;;2.72;2.31;;;;;;;10.59;59.67;101465.11;463091;114;922609;-73
2022/09/07 04:36:48;;;;;;;3.37;2.11;;;;;;;10.61;59.61;101465.77;463131;114;923044;-73
2022/09/07 04:37:51;;;;;;;2.16;2.01;;;;;;;10.64;59.57;101470.02;463060;114;922994;-73
2022/09/07 04:38:57;;;;;;;3.46;2.69;;;;;;;10.66;59.53;101462.46;463028;114;922592;-73
2022/09/07 04:40:00;;;;;;;2.66;2.44;;;;;;;10.67;59.46;101477.80;462868;114;922883;-72
2022/09/07 04:41:07;;;;;;;3.04;2.36;;;;;;;10.68;59.51;101461.24;463102;114;922882;-73
2022/09/07 04:42:10;;;;;;;3.18;2.52;;;;;;;10.70;59.40;101464.60;462851;114;922674;-73
2022/09/07 04:43:13;;;;;;;2.46;2.16;;;;;;;10.71;59.35;101458.11;463067;114;922529;-73
2022/09/07 04:44:16;;;;;;;4.85;2.26;;;;;;;10.72;59.37;101457.08;463061;114;922579;-73
2022/09/07 04:45:19;;;;;;;2.80;2.58;;;;;;;10.74;59.37;101462.35;463091;114;922571;-73
2022/09/07 04:46:26;;;;;;;5.09;2.77;;;;;;;10.76;59.33;101460.25;463032;114;922824;-73
2022/09/07 04:47:30;;;;;;;2.89;2.31;;;;;;;10.77;59.29;101453.77;462886;114;923000;-73
2022/09/07 04:48:34;;;;;;;2.28;2.09;;;;;;;10.78;59.30;101460.91;462991;114;922866;-73
2022/09/07 04:49:37;;;;;;;3.84;2.43;;;;;;;10.80;59.33;101459.70;462945;114;930203;-72
2022/09/07 04:50:40;;;;;;;3.24;2.30;;;;;;;10.83;59.33;101458.44;463000;114;930358;-71
2022/09/07 04:51:43;;;;;;;2.66;2.46;;;;;;;10.85;59.31;101461.83;463089;114;922966;-73
2022/09/07 04:52:46;;;;;;;2.71;2.25;;;;;;;10.87;59.29;101457.00;463095;114;923401;-73
2022/09/07 04:53:51;;;;;;;3.34;2.42;;;;;;;10.88;59.24;101458.70;463033;114;923091;-73
2022/09/07 04:54:54;;;;;;;3.13;2.16;;;;;;;10.87;59.07;101451.55;462933;114;922554;-74
2022/09/07 04:55:58;;;;;;;2.77;2.47;;;;;;;10.86;58.98;101455.34;463102;114;922940;-73
2022/09/07 04:57:01;;;;;;;3.10;2.69;;;;;;;10.82;59.05;101456.75;463010;114;922697;-72
2022/09/07 04:58:04;;;;;;;2.91;2.50;;;;;;;10.79;59.08;101455.27;462945;114;930533;-71
2022/09/07 04:59:07;;;;;;;2.81;2.61;;;;;;;10.76;59.06;101460.25;471228;112;922981;-74
2022/09/07 05:00:11;;;;;;;2.81;2.55;;;;;;;10.74;59.09;101457.74;471863;112;922565;-72
2022/09/07 05:01:17;;;;;;;4.22;2.47;;;;;;;10.73;59.24;101456.05;471797;112;930443;-71
2022/09/07 05:02:21;;;;;;;3.38;2.41;;;;;;;10.71;59.22;101463.57;471600;112;930506;-72
2022/09/07 05:03:24;;;;;;;3.42;2.47;;;;;;;10.69;59.34;101468.39;471809;112;922494;-73
2022/09/07 05:04:27;;;;;;;2.88;2.62;;;;;;;10.68;59.49;101463.97;471931;112;922802;-73
2022/09/07 05:05:31;;;;;;;2.98;2.72;;;;;;;10.68;59.51;101463.13;471858;112;922502;-73
2022/09/07 05:06:34;;;;;;;3.02;2.83;;;;;;;10.68;59.60;101465.85;471811;112;922912;-73
2022/09/07 05:07:37;;;;;;;3.43;3.13;;;;;;;10.68;59.63;101463.97;471909;112;922603;-73
2022/09/07 05:08:43;;;;;;;3.41;3.11;;;;;;;10.68;59.65;101463.97;471929;112;922491;-73
2022/09/07 05:09:46;;;;;;;2.74;2.54;;;;;;;10.68;59.68;101469.42;471362;112;923097;-72
2022/09/07 05:10:51;;;;;;;5.23;2.92;;;;;;;10.68;59.71;101463.97;471166;112;922645;-73
2022/09/07 05:11:54;;;;;;;3.55;3.25;;;;;;;10.70;59.84;101455.57;471141;112;922608;-73